createdAt,value
2022-08-25T00:01:31.731Z,18.31
2022-08-25T00:03:59.341Z,18.25
2022-08-25T00:06:26.134Z,18.25
2022-08-25T00:08:52.620Z,18.28
2022-08-25T00:11:21.076Z,18.24
2022-08-25T00:13:48.675Z,18.23
2022-08-25T00:16:16.097Z,18.28
2022-08-25T00:18:45.623Z,18.27
2022-08-25T00:21:12.650Z,18.31
2022-08-25T00:23:40.031Z,18.20
2022-08-25T00:26:06.668Z,18.12
2022-08-25T00:28:33.919Z,18.03
2022-08-25T00:31:01.333Z,17.98
2022-08-25T00:33:28.454Z,17.98
2022-08-25T00:35:56.396Z,17.91
2022-08-25T00:38:23.143Z,17.89
2022-08-25T00:41:05.789Z,17.88
2022-08-25T00:43:38.206Z,17.90
2022-08-25T00:46:04.854Z,17.87
2022-08-25T00:48:31.341Z,17.75
2022-08-25T00:50:57.747Z,17.68
2022-08-25T00:53:24.310Z,17.51
2022-08-25T00:55:50.718Z,17.40
2022-08-25T00:58:19.237Z,17.35
2022-08-25T01:00:47.342Z,17.38
2022-08-25T01:03:14.340Z,17.36
2022-08-25T01:05:41.145Z,17.43
2022-08-25T01:08:07.636Z,17.40
2022-08-25T01:10:35.256Z,17.38
2022-08-25T01:13:03.720Z,17.35
2022-08-25T01:15:30.357Z,17.32
2022-08-25T01:17:57.454Z,17.29
2022-08-25T01:20:29.603Z,17.25
2022-08-25T01:22:56.620Z,17.19
2022-08-25T01:25:55.527Z,17.17
2022-08-25T01:28:22.262Z,17.25
2022-08-25T01:30:49.397Z,17.28
2022-08-25T01:33:17.310Z,17.30
2022-08-25T01:35:43.921Z,17.26
2022-08-25T01:38:10.412Z,17.25
2022-08-25T01:40:37.472Z,17.19
2022-08-25T01:43:07.119Z,17.07
2022-08-25T01:45:34.748Z,17.01
2022-08-25T01:48:01.327Z,16.85
2022-08-25T01:50:27.927Z,16.86
2022-08-25T01:52:55.879Z,16.91
2022-08-25T01:55:22.642Z,16.84
2022-08-25T01:57:49.142Z,16.71
2022-08-25T02:00:16.164Z,16.74
2022-08-25T02:02:42.911Z,16.79
2022-08-25T02:05:11.319Z,16.84
2022-08-25T02:07:38.233Z,16.84
2022-08-25T02:10:06.237Z,16.91
2022-08-25T02:12:32.740Z,16.89
2022-08-25T02:14:59.822Z,16.88
2022-08-25T02:17:26.234Z,16.77
2022-08-25T02:19:52.687Z,16.77
2022-08-25T02:22:19.100Z,16.74
2022-08-25T02:24:45.549Z,16.79
2022-08-25T02:27:12.086Z,16.69
2022-08-25T02:29:38.559Z,16.56
2022-08-25T02:32:05.024Z,16.61
2022-08-25T02:34:31.458Z,16.59
2022-08-25T02:36:57.873Z,16.51
2022-08-25T02:39:24.346Z,16.53
2022-08-25T02:41:51.500Z,16.48
2022-08-25T02:44:17.939Z,16.45
2022-08-25T02:46:44.355Z,16.42
2022-08-25T02:49:10.798Z,16.42
2022-08-25T02:51:37.205Z,16.42
2022-08-25T02:54:04.395Z,16.34
2022-08-25T02:56:31.071Z,16.29
2022-08-25T02:58:57.605Z,16.25
2022-08-25T03:01:28.655Z,16.22
2022-08-25T03:03:55.829Z,16.20
2022-08-25T03:06:25.445Z,16.17
2022-08-25T03:08:52.243Z,16.19
2022-08-25T03:11:18.736Z,16.23
2022-08-25T03:13:45.161Z,16.12
2022-08-25T03:16:12.453Z,16.03
2022-08-25T03:18:40.233Z,16.04
2022-08-25T03:21:07.092Z,15.99
2022-08-25T03:23:33.500Z,16.00
2022-08-25T03:26:18.554Z,16.01
2022-08-25T03:28:45.038Z,16.01
2022-08-25T03:31:11.518Z,16.00
2022-08-25T03:33:38.418Z,16.03
2022-08-25T03:36:05.601Z,16.07
2022-08-25T03:38:32.220Z,16.08
2022-08-25T03:40:58.672Z,16.13
2022-08-25T03:43:25.083Z,16.12
2022-08-25T03:45:51.563Z,16.12
2022-08-25T03:48:18.269Z,16.13
2022-08-25T03:50:50.782Z,16.17
2022-08-25T03:53:18.914Z,16.17
2022-08-25T03:55:45.413Z,16.21
2022-08-25T03:58:12.391Z,16.21
2022-08-25T04:00:38.895Z,16.21
2022-08-25T04:03:05.342Z,16.16
2022-08-25T04:05:31.883Z,15.97
2022-08-25T04:08:01.909Z,15.84
2022-08-25T04:10:28.605Z,15.81
2022-08-25T04:12:55.993Z,15.83
2022-08-25T04:15:22.491Z,15.82
2022-08-25T04:17:50.527Z,15.72
2022-08-25T04:20:18.934Z,15.72
2022-08-25T04:22:45.434Z,15.68
2022-08-25T04:25:11.868Z,15.69
2022-08-25T04:27:38.314Z,15.73
2022-08-25T04:30:05.542Z,15.74
2022-08-25T04:32:32.211Z,15.71
2022-08-25T04:34:59.002Z,15.69
2022-08-25T04:37:25.473Z,15.66
2022-08-25T04:39:51.999Z,15.64
2022-08-25T04:42:18.433Z,15.63
2022-08-25T04:44:44.865Z,15.59
2022-08-25T04:47:12.240Z,15.60
2022-08-25T04:49:38.685Z,15.64
2022-08-25T04:52:05.116Z,15.67
2022-08-25T04:54:39.460Z,15.70
2022-08-25T04:57:06.248Z,15.71
2022-08-25T04:59:32.734Z,15.71
2022-08-25T05:02:02.526Z,15.71
2022-08-25T05:04:29.358Z,15.71
2022-08-25T05:06:56.353Z,15.73
2022-08-25T05:09:22.836Z,15.82
2022-08-25T05:11:49.267Z,15.87
2022-08-25T05:14:18.219Z,15.85
2022-08-25T05:16:46.120Z,15.81
2022-08-25T05:19:12.660Z,15.80
2022-08-25T05:21:39.201Z,15.73
2022-08-25T05:24:05.857Z,15.78
2022-08-25T05:26:33.221Z,15.75
2022-08-25T05:29:00.775Z,15.78
2022-08-25T05:31:28.013Z,15.83
2022-08-25T05:33:54.724Z,15.90
2022-08-25T05:36:21.992Z,15.92
2022-08-25T05:38:48.621Z,15.96
2022-08-25T05:41:16.951Z,15.95
2022-08-25T05:43:44.250Z,15.98
2022-08-25T05:46:10.895Z,16.04
2022-08-25T05:48:37.502Z,16.13
2022-08-25T05:51:04.890Z,16.25
2022-08-25T05:53:31.430Z,16.39
2022-08-25T05:56:00.744Z,16.55
2022-08-25T05:58:30.709Z,16.74
2022-08-25T06:00:58.100Z,16.99
2022-08-25T06:03:24.579Z,17.23
2022-08-25T06:05:51.029Z,17.49
2022-08-25T06:08:17.529Z,17.75
2022-08-25T06:10:44.015Z,18.07
2022-08-25T06:13:10.471Z,18.40
2022-08-25T06:15:38.653Z,18.67
2022-08-25T06:18:05.240Z,19.01
2022-08-25T06:20:32.218Z,19.42
2022-08-25T06:22:58.827Z,19.72
2022-08-25T06:25:25.753Z,19.95
2022-08-25T06:27:52.206Z,20.30
2022-08-25T06:30:24.325Z,20.51
2022-08-25T06:32:54.982Z,20.93
2022-08-25T06:35:21.440Z,21.18
2022-08-25T06:37:47.945Z,21.49
2022-08-25T06:40:15.049Z,21.75
2022-08-25T06:42:41.684Z,21.97
2022-08-25T06:45:08.484Z,22.11
2022-08-25T06:47:34.944Z,22.23
2022-08-25T06:50:04.014Z,22.32
2022-08-25T06:52:30.768Z,22.43
2022-08-25T06:54:57.317Z,22.66
2022-08-25T06:57:24.331Z,22.79
2022-08-25T06:59:53.491Z,22.83
2022-08-25T07:02:21.952Z,23.04
2022-08-25T07:04:48.848Z,23.17
2022-08-25T07:07:15.277Z,23.36
2022-08-25T07:09:41.715Z,23.56
2022-08-25T07:12:08.330Z,23.69
2022-08-25T07:14:36.424Z,23.89
2022-08-25T07:17:03.286Z,24.09
2022-08-25T07:19:37.112Z,24.31
2022-08-25T07:22:03.561Z,24.51
2022-08-25T07:24:30.021Z,24.58
2022-08-25T07:26:56.514Z,24.24
2022-08-25T07:29:32.174Z,24.30
2022-08-25T07:32:02.732Z,24.43
2022-08-25T07:34:52.150Z,24.55
2022-08-25T07:37:32.210Z,24.40
2022-08-25T07:40:02.158Z,24.36
2022-08-25T07:42:31.364Z,24.73
2022-08-25T07:44:57.977Z,24.98
2022-08-25T07:47:24.468Z,24.85
2022-08-25T07:49:50.945Z,24.68
2022-08-25T07:52:17.372Z,24.75
2022-08-25T07:54:44.237Z,24.73
2022-08-25T07:57:13.651Z,24.91
2022-08-25T07:59:43.415Z,25.19
2022-08-25T08:02:18.215Z,25.03
2022-08-25T08:04:46.318Z,25.19
2022-08-25T08:07:12.814Z,25.53
2022-08-25T08:09:39.224Z,25.35
2022-08-25T08:12:05.868Z,25.30
2022-08-25T08:14:39.568Z,25.66
2022-08-25T08:17:11.626Z,25.44
2022-08-25T08:19:40.757Z,25.61
2022-08-25T08:22:11.555Z,25.10
2022-08-25T08:24:44.615Z,24.93
2022-08-25T08:27:21.342Z,25.26
2022-08-25T08:29:48.574Z,25.44
2022-08-25T08:32:15.110Z,25.63
2022-08-25T08:34:41.761Z,26.16
2022-08-25T08:37:10.413Z,25.42
2022-08-25T08:39:37.148Z,25.48
2022-08-25T08:42:23.208Z,25.93
2022-08-25T08:44:50.357Z,25.79
2022-08-25T08:47:19.819Z,25.85
2022-08-25T08:49:55.313Z,25.87
2022-08-25T08:52:24.514Z,26.11
2022-08-25T08:54:53.285Z,26.07
2022-08-25T08:57:20.190Z,26.47
2022-08-25T08:59:50.818Z,26.59
2022-08-25T09:02:51.528Z,26.86
2022-08-25T09:05:20.022Z,27.10
2022-08-25T09:07:48.396Z,27.26
2022-08-25T09:10:18.275Z,27.13
2022-08-25T09:12:48.165Z,26.70
2022-08-25T09:15:54.793Z,26.60
2022-08-25T09:18:29.873Z,27.07
2022-08-25T09:21:03.303Z,27.29
2022-08-25T09:23:48.323Z,27.36
2022-08-25T09:26:24.104Z,27.10
2022-08-25T09:28:51.918Z,27.50
2022-08-25T09:31:20.113Z,27.66
2022-08-25T09:33:46.773Z,27.41
2022-08-25T09:36:13.654Z,27.96
2022-08-25T09:38:41.214Z,28.31
2022-08-25T09:41:07.982Z,28.68
2022-08-25T09:43:35.621Z,29.22
2022-08-25T09:46:05.190Z,30.07
2022-08-25T09:48:56.713Z,29.70
2022-08-25T09:51:26.727Z,30.78
2022-08-25T09:53:53.189Z,31.23
2022-08-25T09:56:21.581Z,32.46
2022-08-25T09:58:48.443Z,33.07
2022-08-25T10:01:16.329Z,33.65
2022-08-25T10:03:59.682Z,34.58
2022-08-25T10:06:27.827Z,33.50
2022-08-25T10:08:58.251Z,34.06
2022-08-25T10:11:38.831Z,34.60
2022-08-25T10:14:07.814Z,35.67
2022-08-25T10:16:36.162Z,36.32
2022-08-25T10:19:32.322Z,35.87
2022-08-25T10:22:12.076Z,36.78
2022-08-25T10:24:39.457Z,37.07
2022-08-25T10:27:15.078Z,35.44
2022-08-25T10:29:57.625Z,35.77
2022-08-25T10:32:27.645Z,36.24
2022-08-25T10:34:55.118Z,37.57
2022-08-25T10:37:43.682Z,38.44
2022-08-25T10:40:25.494Z,39.38
2022-08-25T10:42:58.621Z,38.95
2022-08-25T10:45:44.627Z,39.49
2022-08-25T10:48:13.400Z,40.39
2022-08-25T10:51:00.909Z,40.84
2022-08-25T10:53:29.503Z,38.96
2022-08-25T10:56:07.856Z,37.07
2022-08-25T10:58:37.499Z,37.86
2022-08-25T11:01:08.089Z,40.32
2022-08-25T11:03:42.888Z,40.30
2022-08-25T11:06:12.571Z,40.78
2022-08-25T11:08:55.297Z,41.22
2022-08-25T11:11:31.312Z,41.67
2022-08-25T11:14:05.728Z,42.53
2022-08-25T11:16:37.547Z,42.71
2022-08-25T11:19:26.884Z,39.90
2022-08-25T11:21:59.595Z,41.21
2022-08-25T11:24:29.093Z,39.39
2022-08-25T11:26:56.399Z,40.32
2022-08-25T11:29:24.183Z,40.82
2022-08-25T11:31:53.530Z,40.09
2022-08-25T11:34:20.845Z,38.96
2022-08-25T11:36:52.090Z,39.80
2022-08-25T11:39:18.617Z,41.26
2022-08-25T11:42:03.984Z,43.62
2022-08-25T11:44:53.344Z,44.41
2022-08-25T11:47:50.083Z,43.73
2022-08-25T11:50:29.905Z,42.50
2022-08-25T11:53:16.973Z,42.96
2022-08-25T11:55:43.623Z,44.67
2022-08-25T11:58:33.210Z,45.48
2022-08-25T12:01:00.444Z,44.64
2022-08-25T12:03:32.924Z,42.22
2022-08-25T12:06:25.733Z,42.39
2022-08-25T12:08:52.795Z,42.92
2022-08-25T12:11:42.292Z,45.20
2022-08-25T12:14:28.995Z,44.73
2022-08-25T12:16:55.539Z,46.24
2022-08-25T12:19:28.653Z,47.54
2022-08-25T12:21:56.726Z,48.22
2022-08-25T12:24:47.996Z,48.93
2022-08-25T12:27:29.054Z,49.68
2022-08-25T12:30:21.096Z,49.87
2022-08-25T12:33:03.095Z,49.43
2022-08-25T12:35:33.560Z,50.18
2022-08-25T12:38:10.288Z,49.46
2022-08-25T12:40:43.876Z,49.66
2022-08-25T12:43:20.671Z,51.53
2022-08-25T12:45:53.064Z,50.90
2022-08-25T12:48:29.050Z,47.87
2022-08-25T12:50:57.779Z,46.91
2022-08-25T12:53:24.580Z,48.36
2022-08-25T12:55:58.162Z,50.74
2022-08-25T12:58:31.211Z,52.38
2022-08-25T13:01:35.249Z,51.37
2022-08-25T13:04:09.387Z,50.82
2022-08-25T13:06:54.813Z,48.90
2022-08-25T13:09:31.409Z,50.02
2022-08-25T13:11:57.884Z,52.40
2022-08-25T13:14:34.754Z,53.19
2022-08-25T13:17:05.570Z,50.54
2022-08-25T13:19:34.760Z,46.44
2022-08-25T13:22:03.443Z,44.84
2022-08-25T13:24:30.755Z,41.56
2022-08-25T13:27:08.906Z,40.40
2022-08-25T13:29:37.691Z,38.66
2022-08-25T13:32:12.671Z,37.15
2022-08-25T13:34:42.893Z,36.18
2022-08-25T13:37:30.382Z,35.57
2022-08-25T13:40:27.408Z,34.69
2022-08-25T13:42:56.232Z,33.56
2022-08-25T13:45:25.358Z,33.42
2022-08-25T13:47:55.834Z,33.57
2022-08-25T13:50:29.907Z,33.60
2022-08-25T13:52:56.694Z,32.96
2022-08-25T13:55:27.736Z,33.01
2022-08-25T13:57:55.168Z,32.71
2022-08-25T14:00:31.819Z,32.63
2022-08-25T14:02:59.343Z,32.34
2022-08-25T14:05:36.459Z,32.33
2022-08-25T14:08:16.254Z,32.21
2022-08-25T14:10:49.855Z,32.32
2022-08-25T14:13:31.881Z,31.81
2022-08-25T14:16:18.649Z,31.35
2022-08-25T14:18:52.863Z,31.26
2022-08-25T14:21:22.871Z,31.24
2022-08-25T14:23:49.290Z,31.11
2022-08-25T14:26:16.369Z,30.89
2022-08-25T14:28:42.912Z,31.19
2022-08-25T14:31:11.106Z,31.12
2022-08-25T14:33:39.362Z,31.16
2022-08-25T14:36:07.017Z,31.43
2022-08-25T14:38:33.730Z,31.73
2022-08-25T14:41:00.303Z,31.86
2022-08-25T14:43:31.774Z,32.07
2022-08-25T14:45:58.986Z,31.53
2022-08-25T14:48:27.142Z,31.69
2022-08-25T14:50:54.111Z,31.04
2022-08-25T14:53:20.526Z,31.08
2022-08-25T14:55:46.970Z,31.41
2022-08-25T14:58:13.729Z,31.69
2022-08-25T15:00:43.833Z,31.99
2022-08-25T15:03:14.674Z,32.01
2022-08-25T15:05:41.213Z,31.99
2022-08-25T15:08:29.927Z,32.13
2022-08-25T15:10:59.042Z,31.78
2022-08-25T15:13:27.444Z,31.80
2022-08-25T15:15:54.902Z,31.49
2022-08-25T15:18:25.756Z,31.34
2022-08-25T15:20:52.208Z,31.13
2022-08-25T15:23:18.843Z,30.97
2022-08-25T15:25:45.970Z,30.78
2022-08-25T15:28:12.787Z,30.62
2022-08-25T15:30:45.689Z,30.81
2022-08-25T15:33:12.506Z,31.19
2022-08-25T15:35:39.069Z,31.10
2022-08-25T15:38:05.618Z,31.12
2022-08-25T15:40:34.398Z,31.98
2022-08-25T15:43:01.537Z,33.38
2022-08-25T15:45:27.999Z,32.26
2022-08-25T15:47:54.401Z,31.30
2022-08-25T15:50:25.403Z,30.51
2022-08-25T15:52:52.680Z,29.91
2022-08-25T15:55:19.859Z,29.50
2022-08-25T15:57:47.823Z,29.27
2022-08-25T16:00:17.036Z,29.22
2022-08-25T16:02:45.421Z,29.22
2022-08-25T16:05:13.465Z,29.51
2022-08-25T16:07:40.039Z,29.50
2022-08-25T16:10:06.620Z,29.35
2022-08-25T16:12:33.094Z,29.23
2022-08-25T16:14:59.896Z,29.13
2022-08-25T16:17:26.735Z,28.96
2022-08-25T16:19:53.200Z,28.94
2022-08-25T16:22:19.803Z,28.98
2022-08-25T16:24:46.317Z,28.94
2022-08-25T16:27:13.297Z,28.71
2022-08-25T16:29:40.678Z,28.61
2022-08-25T16:32:07.885Z,28.56
2022-08-25T16:34:34.513Z,28.47
2022-08-25T16:37:01.028Z,28.53
2022-08-25T16:39:27.468Z,28.54
2022-08-25T16:41:54.295Z,28.51
2022-08-25T16:44:22.629Z,28.51
2022-08-25T16:46:49.583Z,28.44
2022-08-25T16:49:17.510Z,28.33
2022-08-25T16:51:44.026Z,28.21
2022-08-25T16:54:29.544Z,28.03
2022-08-25T16:56:57.420Z,27.78
2022-08-25T16:59:23.943Z,27.72
2022-08-25T17:01:50.464Z,27.59
2022-08-25T17:04:17.322Z,27.52
2022-08-25T17:06:51.689Z,27.45
2022-08-25T17:09:22.855Z,27.38
2022-08-25T17:11:52.623Z,27.34
2022-08-25T17:14:21.198Z,27.27
2022-08-25T17:16:48.600Z,27.15
2022-08-25T17:19:17.341Z,27.02
2022-08-25T17:21:46.402Z,26.93
2022-08-25T17:24:13.335Z,26.80
2022-08-25T17:26:41.135Z,26.73
2022-08-25T17:29:07.880Z,26.68
2022-08-25T17:31:39.635Z,26.66
2022-08-25T17:34:07.610Z,26.60
2022-08-25T17:36:34.055Z,26.51
2022-08-25T17:39:00.562Z,26.47
2022-08-25T17:41:27.892Z,26.45
2022-08-25T17:43:54.375Z,26.37
2022-08-25T17:46:20.911Z,26.22
2022-08-25T17:48:47.374Z,26.16
2022-08-25T17:51:16.030Z,26.14
2022-08-25T17:53:43.678Z,26.11
2022-08-25T17:56:14.823Z,26.05
2022-08-25T17:58:41.405Z,25.99
2022-08-25T18:01:13.911Z,25.91
2022-08-25T18:03:40.397Z,25.71
2022-08-25T18:06:08.391Z,25.56
2022-08-25T18:08:35.482Z,25.41
2022-08-25T18:11:02.583Z,25.29
2022-08-25T18:13:29.253Z,25.15
2022-08-25T18:15:55.697Z,24.98
2022-08-25T18:18:24.298Z,24.89
2022-08-25T18:20:50.963Z,24.73
2022-08-25T18:23:19.512Z,24.60
2022-08-25T18:25:46.125Z,24.49
2022-08-25T18:28:14.150Z,24.32
2022-08-25T18:30:40.805Z,24.21
2022-08-25T18:33:07.911Z,24.10
2022-08-25T18:35:34.354Z,24.02
2022-08-25T18:38:19.940Z,23.94
2022-08-25T18:40:47.748Z,23.79
2022-08-25T18:43:14.447Z,23.72
2022-08-25T18:45:42.477Z,23.59
2022-08-25T18:48:09.246Z,23.51
2022-08-25T18:50:36.412Z,23.43
2022-08-25T18:53:03.207Z,23.33
2022-08-25T18:55:32.796Z,23.26
2022-08-25T18:57:59.292Z,23.22
2022-08-25T19:00:26.885Z,23.08
2022-08-25T19:02:54.723Z,23.04
2022-08-25T19:05:23.749Z,22.95
2022-08-25T19:07:52.039Z,22.90
2022-08-25T19:10:19.080Z,22.87
2022-08-25T19:12:45.709Z,22.79
2022-08-25T19:15:12.779Z,22.70
2022-08-25T19:17:39.296Z,22.62
2022-08-25T19:20:11.232Z,22.57
2022-08-25T19:22:41.989Z,22.47
2022-08-25T19:25:09.494Z,22.40
2022-08-25T19:27:36.015Z,22.44
2022-08-25T19:30:03.604Z,22.42
2022-08-25T19:32:30.282Z,22.34
2022-08-25T19:34:56.863Z,22.27
2022-08-25T19:37:25.050Z,22.23
2022-08-25T19:39:53.986Z,22.18
2022-08-25T19:42:31.744Z,22.08
2022-08-25T19:45:03.065Z,21.92
2022-08-25T19:47:29.735Z,21.87
2022-08-25T19:49:58.564Z,21.86
2022-08-25T19:52:28.727Z,21.84
2022-08-25T19:54:55.419Z,21.76
2022-08-25T19:57:28.236Z,21.74
2022-08-25T20:00:10.242Z,21.71
2022-08-25T20:02:36.905Z,21.67
2022-08-25T20:05:04.105Z,21.63
2022-08-25T20:07:32.503Z,21.62
2022-08-25T20:09:59.451Z,21.54
2022-08-25T20:12:26.011Z,21.52
2022-08-25T20:14:53.455Z,21.43
2022-08-25T20:17:24.742Z,21.39
2022-08-25T20:19:57.166Z,21.27
2022-08-25T20:22:26.114Z,21.17
2022-08-25T20:24:57.426Z,21.10
2022-08-25T20:27:26.603Z,21.06
2022-08-25T20:29:53.343Z,21.03
2022-08-25T20:32:19.869Z,20.96
2022-08-25T20:34:46.801Z,20.94
2022-08-25T20:37:13.286Z,20.96
2022-08-25T20:39:40.671Z,20.93
2022-08-25T20:42:07.173Z,20.83
2022-08-25T20:44:36.692Z,20.75
2022-08-25T20:47:08.786Z,20.68
2022-08-25T20:49:37.863Z,20.66
2022-08-25T20:52:04.611Z,20.64
2022-08-25T20:54:31.133Z,20.60
2022-08-25T20:56:57.657Z,20.49
2022-08-25T20:59:24.790Z,20.47
2022-08-25T21:01:51.630Z,20.42
2022-08-25T21:04:20.745Z,20.37
2022-08-25T21:06:47.322Z,20.24
2022-08-25T21:09:16.022Z,20.18
2022-08-25T21:11:42.854Z,20.09
2022-08-25T21:14:09.826Z,20.08
2022-08-25T21:16:37.686Z,19.96
2022-08-25T21:19:04.515Z,19.94
2022-08-25T21:21:37.403Z,19.88
2022-08-25T21:24:07.317Z,19.85
2022-08-25T21:26:35.296Z,19.77
2022-08-25T21:29:03.835Z,19.75
2022-08-25T21:31:31.180Z,19.62
2022-08-25T21:33:58.486Z,19.54
2022-08-25T21:36:25.687Z,19.51
2022-08-25T21:38:52.653Z,19.49
2022-08-25T21:41:21.282Z,19.40
2022-08-25T21:43:48.106Z,19.31
2022-08-25T21:46:15.689Z,19.24
2022-08-25T21:48:42.179Z,19.23
2022-08-25T21:51:09.706Z,19.18
2022-08-25T21:53:36.663Z,19.08
2022-08-25T21:56:07.092Z,19.16
2022-08-25T21:58:33.709Z,19.12
2022-08-25T22:01:07.486Z,19.03
2022-08-25T22:03:37.752Z,19.02
2022-08-25T22:06:05.306Z,18.94
2022-08-25T22:08:32.605Z,18.88
2022-08-25T22:11:00.267Z,18.83
2022-08-25T22:13:27.358Z,18.80
2022-08-25T22:15:54.384Z,18.79
2022-08-25T22:18:21.485Z,18.82
2022-08-25T22:20:48.557Z,18.72
2022-08-25T22:23:20.281Z,18.68
2022-08-25T22:25:47.614Z,18.65
2022-08-25T22:28:15.780Z,18.60
2022-08-25T22:30:42.724Z,18.44
2022-08-25T22:33:09.343Z,18.32
2022-08-25T22:35:36.004Z,18.32
2022-08-25T22:38:06.338Z,18.35
2022-08-25T22:40:33.515Z,18.39
2022-08-25T22:43:00.079Z,18.41
2022-08-25T22:45:26.940Z,18.46
2022-08-25T22:47:55.217Z,18.50
2022-08-25T22:50:21.626Z,18.49
2022-08-25T22:52:48.239Z,18.48
2022-08-25T22:55:14.848Z,18.41
2022-08-25T22:57:42.801Z,18.44
2022-08-25T23:00:10.455Z,18.41
2022-08-25T23:02:37.032Z,18.41
2022-08-25T23:05:03.868Z,18.43
2022-08-25T23:07:32.941Z,18.41
2022-08-25T23:10:00.041Z,18.35
2022-08-25T23:12:26.488Z,18.24
2022-08-25T23:14:52.985Z,18.19
2022-08-25T23:17:19.567Z,18.09
2022-08-25T23:19:46.345Z,18.06
2022-08-25T23:22:16.311Z,18.08
2022-08-25T23:24:46.903Z,18.07
2022-08-25T23:27:14.828Z,18.03
2022-08-25T23:29:44.134Z,17.94
2022-08-25T23:32:13.964Z,17.87
2022-08-25T23:34:42.889Z,17.75
2022-08-25T23:37:13.571Z,17.77
2022-08-25T23:39:45.722Z,17.77
2022-08-25T23:42:12.318Z,17.76
2022-08-25T23:44:38.743Z,17.81
2022-08-25T23:47:07.031Z,17.80
2022-08-25T23:49:33.445Z,17.82
2022-08-25T23:52:00.023Z,17.87
2022-08-25T23:54:30.869Z,17.90
2022-08-25T23:56:57.815Z,17.90
2022-08-25T23:59:25.544Z,17.89
